Time;durP1;ratioP1;P1;durP2;ratioP2;P2;SDS_P1;SDS_P2;PMS_P1;PMS_P2;Temp;Humidity;BMP_temperature;BMP_pressure;BME280_temperature;BME280_humidity;BME280_pressure;Samples;Min_cycle;Max_cycle;Signal;HPM_P1;HPM_P2
2022/12/20 00:00:48;;;;;;;;;2.00;1.00;;;;;20.00;36.09;101101.44;5034253;28;45231;-68
2022/12/20 00:03:14;;;;;;;;;1.00;1.00;;;;;20.00;36.17;101100.59;5046741;28;45234;-68
2022/12/20 00:05:41;;;;;;;;;1.25;1.25;;;;;19.92;36.22;101082.91;5054098;28;47035;-68
2022/12/20 00:08:07;;;;;;;;;1.75;1.75;;;;;20.01;36.18;101091.69;5053558;28;45495;-68
2022/12/20 00:10:41;;;;;;;;;2.00;2.00;;;;;19.98;36.19;101087.56;5053148;28;45336;-68
2022/12/20 00:13:07;;;;;;;;;2.00;2.00;;;;;19.88;35.97;101066.56;5054200;28;45455;-68
2022/12/20 00:15:33;;;;;;;;;1.00;1.00;;;;;20.00;36.13;101074.19;5053825;28;45531;-68
2022/12/20 00:17:59;;;;;;;;;2.00;2.00;;;;;20.00;36.10;101077.66;5053968;28;45425;-68
2022/12/20 00:20:25;;;;;;;;;3.25;1.00;;;;;20.00;36.26;101072.38;5054061;28;45494;-68
2022/12/20 00:22:51;;;;;;;;;2.00;2.00;;;;;20.00;36.04;101076.84;5053722;28;45467;-68
2022/12/20 00:25:16;;;;;;;;;2.00;2.00;;;;;19.96;36.18;101069.22;5035650;28;47074;-68
2022/12/20 00:27:41;;;;;;;;;2.00;2.00;;;;;20.00;36.29;101068.91;5053840;28;45227;-68
2022/12/20 00:30:07;;;;;;;;;2.00;2.00;;;;;20.00;36.37;101075.03;5054055;28;45302;-68
2022/12/20 00:32:33;;;;;;;;;1.25;1.00;;;;;19.99;36.32;101073.34;5053888;28;45288;-68
2022/12/20 00:34:58;;;;;;;;;2.00;1.00;;;;;19.93;36.33;101066.09;5053469;27;46106;-68
2022/12/20 00:37:24;;;;;;;;;2.00;2.00;;;;;20.00;36.25;101080.31;5053375;28;45309;-68
2022/12/20 00:39:49;;;;;;;;;1.00;1.00;;;;;20.00;36.22;101066.28;5053989;28;45450;-68
2022/12/20 00:42:14;;;;;;;;;1.00;1.00;;;;;19.99;36.53;101060.16;5053725;28;45583;-68
2022/12/20 00:44:40;;;;;;;;;1.25;1.25;;;;;20.00;36.28;101067.09;5035549;28;47108;-68
2022/12/20 00:47:05;;;;;;;;;3.00;2.00;;;;;20.00;36.30;101056.53;5053655;28;45424;-68
2022/12/20 00:49:30;;;;;;;;;1.00;1.00;;;;;20.00;36.19;101055.72;5053817;28;45371;-68
2022/12/20 00:51:56;;;;;;;;;2.50;2.50;;;;;19.99;36.25;101046.94;5053363;28;45390;-68
2022/12/20 00:54:21;;;;;;;;;3.50;1.25;;;;;19.98;36.34;101050.59;5047550;28;46048;-68
2022/12/20 00:56:46;;;;;;;;;3.00;1.00;;;;;19.99;36.50;101044.31;5033446;27;45408;-68
2022/12/20 00:59:11;;;;;;;;;1.00;1.00;;;;;19.98;36.37;101047.13;5033590;28;45358;-68
2022/12/20 01:01:37;;;;;;;;;2.00;2.00;;;;;19.99;36.29;101040.84;5033315;28;45357;-68
2022/12/20 01:04:02;;;;;;;;;1.50;1.50;;;;;19.99;36.34;101040.84;5052663;28;45919;-68
2022/12/20 01:06:29;;;;;;;;;2.75;2.75;;;;;20.00;36.52;101047.78;5053156;28;45361;-68
2022/12/20 01:08:54;;;;;;;;;1.50;1.50;;;;;20.01;36.31;101057.38;5053495;28;45419;-68
2022/12/20 01:11:28;;;;;;;;;2.50;2.50;;;;;20.00;36.32;101048.63;5053430;28;45397;-68
2022/12/20 01:13:56;;;;;;;;;1.00;1.00;;;;;20.01;36.26;101049.44;5053355;28;45360;-68
2022/12/20 01:16:25;;;;;;;;;2.00;2.00;;;;;20.01;36.11;101044.16;5053122;28;45364;-68
2022/12/20 01:18:51;;;;;;;;;1.00;1.00;;;;;20.01;36.43;101044.16;5053243;28;45359;-68
2022/12/20 01:21:20;;;;;;;;;1.50;1.00;;;;;20.01;36.39;101041.53;5052580;28;45367;-68
2022/12/20 01:23:46;;;;;;;;;3.50;2.50;;;;;20.01;36.34;101033.59;5053035;28;47009;-68
2022/12/20 01:26:16;;;;;;;;;1.00;1.00;;;;;20.01;36.48;101031.75;5053274;28;45289;-68
2022/12/20 01:28:44;;;;;;;;;0.50;0.50;;;;;20.01;36.28;101023.03;5053199;28;45363;-68
2022/12/20 01:31:13;;;;;;;;;2.50;2.50;;;;;20.01;36.48;101028.31;5053096;28;45351;-68
2022/12/20 01:33:38;;;;;;;;;0.25;0.25;;;;;19.96;36.58;101026.13;5053124;28;45306;-68
2022/12/20 01:36:07;;;;;;;;;1.00;1.00;;;;;20.00;36.25;101040.69;5052435;28;45181;-68
2022/12/20 01:38:34;;;;;;;;;2.50;2.50;;;;;20.01;36.46;101034.41;5053150;28;45344;-68
2022/12/20 01:41:00;;;;;;;;;2.25;2.00;;;;;20.01;36.32;101039.69;5052972;28;45313;-68
2022/12/20 01:43:48;;;;;;;;;2.25;2.25;;;;;20.03;36.51;101034.25;5034659;28;46042;-68
2022/12/20 01:46:14;;;;;;;;;3.75;1.00;;;;;20.02;36.47;101037.88;5052790;28;45337;-68
2022/12/20 01:48:41;;;;;;;;;1.75;1.75;;;;;19.99;36.34;101027.63;5052948;28;45361;-68
2022/12/20 01:51:07;;;;;;;;;2.00;0.50;;;;;20.02;36.35;101027.31;5052581;28;45395;-68
2022/12/20 01:53:33;;;;;;;;;1.50;1.50;;;;;20.02;36.35;101025.50;5052624;28;46027;-68
2022/12/20 01:56:04;;;;;;;;;3.50;2.25;;;;;20.02;36.36;101009.66;5033117;28;45383;-68
2022/12/20 01:58:29;;;;;;;;;1.50;1.50;;;;;19.95;36.51;101009.50;5032765;28;45379;-68
2022/12/20 02:00:55;;;;;;;;;1.25;1.25;;;;;20.02;36.48;101016.75;5032433;28;45408;-68
2022/12/20 02:03:20;;;;;;;;;2.75;2.75;;;;;20.01;36.33;101013.28;5045555;27;46243;-68
2022/12/20 02:05:46;;;;;;;;;2.00;2.00;;;;;20.02;36.41;101011.47;5052467;28;45471;-68
2022/12/20 02:08:14;;;;;;;;;2.00;2.00;;;;;20.02;36.25;101006.19;5052587;28;45309;-67
2022/12/20 02:11:05;;;;;;;;;3.00;2.25;;;;;20.03;36.35;101016.59;5052813;28;45375;-67
2022/12/20 02:13:48;;;;;;;;;2.00;2.00;;;;;20.02;36.28;101017.56;5052363;28;46200;-68
2022/12/20 02:16:21;;;;;;;;;1.00;1.00;;;;;19.96;36.29;100999.72;5052245;28;45257;-68
2022/12/20 02:19:10;;;;;;;;;2.00;2.00;;;;;20.01;36.41;101008.00;5052158;28;45389;-68
2022/12/20 02:22:07;;;;;;;;;1.00;1.00;;;;;19.99;36.27;100995.94;4951219;28;45532;-68
2022/12/20 02:24:41;;;;;;;;;1.00;1.00;;;;;20.01;36.57;101015.13;4893620;29;46133;-68
2022/12/20 02:27:28;;;;;;;;;2.50;2.25;;;;;20.02;36.24;101003.53;4893635;28;45414;-68
2022/12/20 02:30:13;;;;;;;;;1.50;1.50;;;;;20.02;36.42;101000.91;4893814;29;45318;-68
2022/12/20 02:32:51;;;;;;;;;2.75;2.75;;;;;20.02;36.50;101003.53;4893293;29;45473;-68
2022/12/20 02:35:23;;;;;;;;;2.00;2.00;;;;;20.00;36.59;100990.50;4896476;29;45373;-68
2022/12/20 02:37:51;;;;;;;;;1.50;1.50;;;;;20.01;36.47;100994.78;4896638;29;45485;-68
2022/12/20 02:40:21;;;;;;;;;3.00;1.75;;;;;19.97;36.36;100977.63;4896715;29;45401;-68
2022/12/20 02:42:51;;;;;;;;;2.25;2.00;;;;;20.01;36.65;100991.34;4896713;29;45520;-68
2022/12/20 02:45:19;;;;;;;;;1.50;1.50;;;;;20.00;36.44;100985.22;4896512;29;45476;-68
2022/12/20 02:48:07;;;;;;;;;1.00;1.00;;;;;20.01;36.48;100992.16;4896138;29;45375;-68
2022/12/20 02:50:50;;;;;;;;;3.00;2.00;;;;;19.90;36.55;100958.16;4896628;29;45410;-68
2022/12/20 02:53:16;;;;;;;;;2.25;2.25;;;;;19.88;36.39;100947.72;4896560;29;45757;-68
2022/12/20 02:55:52;;;;;;;;;1.00;1.00;;;;;20.01;36.34;100973.66;4880322;29;46134;-68
2022/12/20 02:58:27;;;;;;;;;3.00;1.50;;;;;19.94;36.58;100949.72;4905394;28;45488;-68
2022/12/20 03:00:58;;;;;;;;;1.25;1.25;;;;;20.01;36.24;100957.81;4972473;28;45426;-68
2022/12/20 03:03:23;;;;;;;;;1.00;1.00;;;;;20.01;36.58;100962.28;5042382;28;45278;-68
2022/12/20 03:05:54;;;;;;;;;3.75;2.75;;;;;20.00;36.58;100955.34;5054833;28;46022;-68
2022/12/20 03:08:21;;;;;;;;;0.75;0.75;;;;;20.00;36.48;100961.47;5054903;28;45486;-68
2022/12/20 03:10:47;;;;;;;;;6.00;2.00;;;;;19.94;36.69;100952.38;5054864;28;45245;-68
2022/12/20 03:13:13;;;;;;;;;2.50;2.50;;;;;20.00;36.57;100955.34;5054801;28;45391;-68
2022/12/20 03:15:38;;;;;;;;;1.00;1.00;;;;;20.00;36.52;100965.91;5054686;28;45337;-68
2022/12/20 03:18:03;;;;;;;;;1.50;1.50;;;;;19.95;36.42;100955.84;5054411;28;45256;-68
2022/12/20 03:20:29;;;;;;;;;1.00;1.00;;;;;19.89;36.33;100949.38;5054822;28;45173;-68
2022/12/20 03:22:55;;;;;;;;;4.00;2.00;;;;;20.00;36.40;100961.47;5054784;28;45351;-68
2022/12/20 03:25:20;;;;;;;;;2.00;2.00;;;;;20.00;36.57;100945.59;5054549;28;46110;-68
2022/12/20 03:27:46;;;;;;;;;3.25;3.00;;;;;20.01;36.41;100941.97;5054596;28;45306;-68
2022/12/20 03:30:12;;;;;;;;;1.25;1.25;;;;;19.96;36.56;100941.63;5054750;28;45384;-68
2022/12/20 03:32:38;;;;;;;;;4.25;2.00;;;;;19.95;36.36;100947.91;5054232;27;45431;-68
2022/12/20 03:35:03;;;;;;;;;2.50;1.75;;;;;20.01;36.49;100968.38;5054423;28;46173;-68
2022/12/20 03:37:29;;;;;;;;;0.75;0.75;;;;;20.01;36.54;100964.94;5054402;28;45595;-67
2022/12/20 03:39:54;;;;;;;;;2.00;2.00;;;;;20.02;36.39;100956.84;5054687;28;45347;-68
2022/12/20 03:42:19;;;;;;;;;2.00;2.00;;;;;20.02;35.99;100950.72;5054626;28;45388;-68
2022/12/20 03:44:45;;;;;;;;;1.00;1.00;;;;;20.02;36.40;100954.19;5053829;28;46123;-70
2022/12/20 03:47:10;;;;;;;;;4.00;2.00;;;;;20.04;36.66;100954.00;5054252;28;45344;-68
2022/12/20 03:49:35;;;;;;;;;1.00;1.00;;;;;20.03;36.41;100952.38;5054567;28;45355;-68
2022/12/20 03:52:01;;;;;;;;;1.00;1.00;;;;;19.98;36.28;100944.97;5054364;28;45375;-68
2022/12/20 03:54:26;;;;;;;;;2.25;2.25;;;;;20.02;36.31;100945.44;5047702;28;46185;-68
2022/12/20 03:56:51;;;;;;;;;2.50;2.50;;;;;19.95;36.38;100932.06;5033912;28;45286;-68
2022/12/20 03:59:17;;;;;;;;;1.75;1.75;;;;;20.03;36.48;100937.38;5033949;28;45305;-68
2022/12/20 04:01:42;;;;;;;;;2.25;2.25;;;;;20.03;36.44;100942.66;5033877;28;45398;-68
2022/12/20 04:04:11;;;;;;;;;2.00;2.00;;;;;20.03;36.47;100940.00;5054011;28;46467;-69
2022/12/20 04:06:36;;;;;;;;;2.25;1.50;;;;;20.04;36.59;100943.44;5054355;28;45406;-68
2022/12/20 04:09:02;;;;;;;;;1.25;1.00;;;;;19.92;36.28;100914.75;5053984;28;45346;-68
2022/12/20 04:11:27;;;;;;;;;3.75;2.00;;;;;20.02;36.52;100919.84;5054311;28;45330;-68
2022/12/20 04:13:53;;;;;;;;;1.25;1.25;;;;;20.02;36.47;100916.38;5053858;28;45406;-68
2022/12/20 04:16:21;;;;;;;;;2.00;1.00;;;;;20.04;36.48;100924.97;5053964;28;46063;-68
2022/12/20 04:18:46;;;;;;;;;1.00;1.00;;;;;20.03;36.54;100923.31;5054162;28;45407;-68
2022/12/20 04:21:12;;;;;;;;;1.00;1.00;;;;;19.92;36.52;100896.25;5053969;28;45392;-68
2022/12/20 04:23:40;;;;;;;;;2.00;2.00;;;;;20.04;36.77;100909.94;5053814;28;46361;-69
2022/12/20 04:26:07;;;;;;;;;1.00;1.00;;;;;20.03;36.74;100889.81;5053767;28;45380;-68
2022/12/20 04:28:33;;;;;;;;;2.00;2.00;;;;;20.02;36.46;100893.44;5053704;28;45359;-68
2022/12/20 04:30:59;;;;;;;;;1.00;1.00;;;;;20.03;36.70;100891.63;5053990;28;45334;-68
2022/12/20 04:33:25;;;;;;;;;2.00;2.00;;;;;20.03;36.72;100886.34;5053864;28;45568;-68
2022/12/20 04:35:51;;;;;;;;;1.25;1.25;;;;;20.03;36.82;100899.56;5052850;28;45396;-68
2022/12/20 04:38:18;;;;;;;;;1.25;1.25;;;;;20.02;36.63;100904.00;5053814;28;45332;-68
2022/12/20 04:40:44;;;;;;;;;3.50;1.00;;;;;20.01;36.35;100904.19;5053820;28;45447;-68
2022/12/20 04:43:09;;;;;;;;;2.50;2.50;;;;;20.03;36.56;100907.47;5053340;28;46907;-68
2022/12/20 04:45:35;;;;;;;;;1.75;1.75;;;;;19.99;36.65;100914.91;5053697;28;45371;-68
2022/12/20 04:48:00;;;;;;;;;2.00;2.00;;;;;19.96;36.49;100910.78;5053750;28;45304;-68
2022/12/20 04:50:26;;;;;;;;;3.00;1.00;;;;;20.03;36.56;100925.97;5053801;28;45324;-68
2022/12/20 04:55:39;;;;;;;;;1.75;1.75;;;;;20.02;36.58;100919.03;5037134;28;45428;-68
2022/12/20 04:58:06;;;;;;;;;1.50;1.50;;;;;20.02;36.54;100900.53;5033063;28;45462;-68
2022/12/20 05:00:32;;;;;;;;;1.25;1.25;;;;;20.03;36.56;100899.56;5033508;28;45319;-68
2022/12/20 05:02:58;;;;;;;;;1.25;1.25;;;;;20.02;36.70;100906.66;5043379;28;45448;-68
2022/12/20 05:05:23;;;;;;;;;2.00;2.00;;;;;20.03;36.58;100910.13;5053352;28;45228;-68
2022/12/20 05:07:50;;;;;;;;;3.00;1.75;;;;;20.02;36.58;100905.81;5053324;28;45383;-68
2022/12/20 05:10:15;;;;;;;;;3.00;3.00;;;;;19.96;36.68;100897.56;5053478;28;45348;-68
2022/12/20 05:12:40;;;;;;;;;1.00;1.00;;;;;20.02;36.60;100897.91;5052881;28;45274;-68
2022/12/20 05:15:06;;;;;;;;;1.00;1.00;;;;;20.03;36.50;100905.66;5053247;28;45395;-68
2022/12/20 05:17:32;;;;;;;;;1.75;1.75;;;;;20.02;36.44;100911.94;5053346;28;45348;-68
2022/12/20 05:19:57;;;;;;;;;1.25;1.00;;;;;19.99;36.72;100903.50;5053509;28;45292;-68
2022/12/20 05:27:53;;;;;;;;;2.25;1.75;;;;;20.01;36.62;100894.41;5052856;28;45429;-69
2022/12/20 05:30:19;;;;;;;;;2.00;1.00;;;;;20.01;36.70;100905.00;5053211;28;45446;-68
2022/12/20 05:32:44;;;;;;;;;2.25;2.00;;;;;19.96;36.66;100899.38;5053137;28;45272;-68
2022/12/20 05:35:10;;;;;;;;;1.00;1.00;;;;;20.03;36.64;100920.69;5052986;28;45291;-68
2022/12/20 05:37:35;;;;;;;;;1.25;1.25;;;;;20.03;36.73;100918.03;5053034;28;45594;-68
2022/12/20 05:40:00;;;;;;;;;2.25;1.25;;;;;20.00;36.66;100915.72;5053135;28;45363;-68
2022/12/20 05:42:25;;;;;;;;;2.75;1.50;;;;;20.00;36.63;100921.84;5052490;28;47210;-68
2022/12/20 05:44:51;;;;;;;;;1.75;1.75;;;;;20.01;36.63;100926.13;5052942;28;45306;-68
2022/12/20 05:47:16;;;;;;;;;3.00;2.00;;;;;20.01;36.58;100925.31;5052907;28;45295;-68
2022/12/20 05:49:41;;;;;;;;;2.00;2.00;;;;;20.00;36.57;100921.84;5052969;28;45356;-68
2022/12/20 05:52:07;;;;;;;;;1.00;1.00;;;;;20.02;36.74;100922.50;5052693;28;45290;-68
2022/12/20 05:54:32;;;;;;;;;1.75;1.75;;;;;20.01;36.64;100920.84;5045399;28;45417;-68
2022/12/20 05:56:57;;;;;;;;;2.00;2.00;;;;;20.02;36.55;100922.50;5032227;28;45295;-68
2022/12/20 05:59:23;;;;;;;;;4.00;1.00;;;;;20.00;36.73;100911.28;5032815;28;45327;-68
2022/12/20 06:01:49;;;;;;;;;1.25;1.00;;;;;20.02;36.57;100914.56;5015308;28;46123;-68
2022/12/20 06:04:14;;;;;;;;;1.00;0.75;;;;;20.02;36.58;100919.84;5052672;28;45424;-68
2022/12/20 06:06:40;;;;;;;;;1.00;1.00;;;;;20.02;36.60;100914.56;5052669;28;45350;-68
2022/12/20 06:09:05;;;;;;;;;2.50;2.00;;;;;19.88;36.46;100886.19;5054321;28;45310;-68
2022/12/20 06:11:30;;;;;;;;;1.00;1.00;;;;;20.04;36.51;100909.94;5055208;28;46392;-68
2022/12/20 06:13:56;;;;;;;;;1.50;1.50;;;;;20.04;36.71;100906.47;5055808;28;45725;-68
2022/12/20 06:16:22;;;;;;;;;1.75;1.50;;;;;20.02;36.73;100911.09;5055616;28;45473;-68
2022/12/20 06:18:47;;;;;;;;;1.25;1.25;;;;;20.03;36.75;100910.94;5055537;28;45487;-68
2022/12/20 06:21:13;;;;;;;;;3.50;1.75;;;;;20.00;36.76;100905.16;5055308;28;46318;-68
2022/12/20 06:23:38;;;;;;;;;1.00;0.00;;;;;20.05;36.64;100910.78;5055536;28;45414;-68
2022/12/20 06:26:05;;;;;;;;;1.00;1.00;;;;;20.05;36.58;100908.13;5055393;28;45266;-68
2022/12/20 06:28:30;;;;;;;;;1.50;1.50;;;;;19.93;36.54;100895.25;5055669;27;45517;-68
2022/12/20 06:30:57;;;;;;;;;1.00;1.00;;;;;20.06;36.76;100912.44;5055284;28;46003;-68
2022/12/20 06:33:24;;;;;;;;;2.75;1.00;;;;;20.07;36.71;100914.06;5055381;28;45403;-68
2022/12/20 06:35:50;;;;;;;;;3.00;2.00;;;;;20.06;36.69;100912.44;5055262;28;45342;-68
2022/12/20 06:38:15;;;;;;;;;1.25;1.25;;;;;20.06;36.57;100912.44;5055355;28;45368;-68
2022/12/20 06:40:40;;;;;;;;;3.00;2.00;;;;;20.06;36.68;100902.69;5054773;28;45757;-68
2022/12/20 06:43:06;;;;;;;;;3.25;1.75;;;;;20.06;36.55;100909.78;5055216;28;45428;-68
2022/12/20 06:45:31;;;;;;;;;2.50;2.50;;;;;20.05;36.82;100916.06;5055080;28;45455;-68
2022/12/20 06:47:57;;;;;;;;;1.00;1.00;;;;;20.04;36.66;100917.88;5055319;28;45270;-68
2022/12/20 06:50:23;;;;;;;;;1.25;1.25;;;;;20.04;36.70;100912.59;5036964;28;46011;-68
2022/12/20 06:52:48;;;;;;;;;4.00;2.00;;;;;20.04;36.81;100909.94;5055115;28;45435;-68
2022/12/20 06:55:13;;;;;;;;;1.75;1.75;;;;;20.05;36.84;100908.13;5041974;28;45316;-68
2022/12/20 06:57:39;;;;;;;;;3.00;2.25;;;;;20.05;36.79;100908.13;5034840;28;45283;-68
2022/12/20 07:00:05;;;;;;;;;2.00;1.50;;;;;20.03;36.78;100904.84;5034899;28;46162;-68
2022/12/20 07:02:30;;;;;;;;;1.75;1.75;;;;;20.05;36.81;100905.50;5040505;28;45303;-68
2022/12/20 07:04:56;;;;;;;;;1.75;1.75;;;;;20.04;36.87;100909.13;5053940;28;45338;-68
2022/12/20 07:07:21;;;;;;;;;1.75;1.75;;;;;20.03;36.82;100910.94;5053997;28;45337;-68
2022/12/20 07:09:47;;;;;;;;;2.00;2.00;;;;;19.99;36.64;100909.63;5053486;28;46163;-68
2022/12/20 07:12:12;;;;;;;;;1.00;1.00;;;;;20.03;36.98;100910.94;5053521;28;45384;-68
2022/12/20 07:14:37;;;;;;;;;1.00;1.00;;;;;19.98;36.74;100909.78;5053981;28;45284;-68
2022/12/20 07:17:04;;;;;;;;;1.75;1.75;;;;;20.04;36.86;100925.78;5053589;28;45309;-68
2022/12/20 07:19:29;;;;;;;;;1.00;1.00;;;;;20.01;36.75;100912.91;5053236;28;46320;-68
2022/12/20 07:21:55;;;;;;;;;1.00;1.00;;;;;20.03;36.83;100916.22;5053546;28;45299;-68
2022/12/20 07:24:20;;;;;;;;;2.25;2.25;;;;;20.03;36.87;100910.94;5053407;28;45372;-68
2022/12/20 07:26:46;;;;;;;;;0.50;0.00;;;;;20.03;36.98;100913.59;5053705;28;45482;-68
2022/12/20 07:29:12;;;;;;;;;1.00;1.00;;;;;20.04;36.96;100917.03;5053502;28;45443;-68
2022/12/20 07:31:37;;;;;;;;;1.50;1.00;;;;;20.04;36.94;100915.22;5053471;28;45433;-68
2022/12/20 07:34:03;;;;;;;;;1.50;1.50;;;;;20.04;36.71;100915.22;5053592;28;45491;-68
2022/12/20 07:36:28;;;;;;;;;3.00;1.00;;;;;20.04;36.81;100919.69;5053405;28;45316;-68
2022/12/20 07:38:53;;;;;;;;;1.00;1.00;;;;;20.04;36.88;100925.78;5052952;28;47153;-68
2022/12/20 07:41:18;;;;;;;;;2.00;1.75;;;;;20.04;36.88;100919.69;5053266;28;45387;-68
2022/12/20 07:43:44;;;;;;;;;1.00;0.75;;;;;19.94;36.74;100896.91;5053365;28;45456;-68
2022/12/20 07:46:12;;;;;;;;;2.00;2.00;;;;;20.04;36.87;100915.22;5053377;28;45515;-68
2022/12/20 07:48:37;;;;;;;;;2.75;1.00;;;;;20.02;37.19;100919.84;5053241;28;46600;-68
2022/12/20 07:51:13;;;;;;;;;2.00;1.00;;;;;20.06;36.99;100925.66;5052910;28;45352;-68
2022/12/20 07:53:45;;;;;;;;;2.00;2.00;;;;;20.02;36.81;100924.31;5052931;28;45339;-68
2022/12/20 07:56:12;;;;;;;;;1.00;1.00;;;;;20.04;37.04;100922.31;5013261;28;45442;-68
2022/12/20 07:58:40;;;;;;;;;3.00;2.00;;;;;20.03;37.07;100918.03;5012754;28;45977;-68
2022/12/20 08:01:09;;;;;;;;;1.25;1.25;;;;;20.04;37.04;100922.31;4971953;28;1167035;-68
2022/12/20 08:03:48;;;;;;;;;3.00;1.50;;;;;20.03;36.77;100926.81;5044907;28;45407;-68
2022/12/20 08:06:14;;;;;;;;;2.00;2.00;;;;;20.01;37.10;100927.94;5053751;28;45407;-68
2022/12/20 08:08:42;;;;;;;;;1.00;1.00;;;;;20.03;36.89;100931.25;5053869;28;46141;-68
2022/12/20 08:11:09;;;;;;;;;3.50;2.75;;;;;20.04;36.86;100927.59;5035815;28;45360;-68
2022/12/20 08:13:35;;;;;;;;;1.50;1.00;;;;;19.96;37.09;100915.22;5054165;28;45388;-68
2022/12/20 08:16:01;;;;;;;;;2.00;1.00;;;;;20.02;36.99;100917.22;5053965;28;45284;-68
2022/12/20 08:18:26;;;;;;;;;1.00;1.00;;;;;19.66;36.90;100862.91;5053724;28;46558;-68
2022/12/20 08:20:51;;;;;;;;;1.00;1.00;;;;;20.04;36.93;100920.50;5053154;28;45341;-68
2022/12/20 08:23:18;;;;;;;;;1.00;1.00;;;;;20.03;36.89;100918.03;5054071;28;45375;-68
2022/12/20 08:25:44;;;;;;;;;2.50;1.25;;;;;20.03;37.11;100910.13;5054290;27;45362;-69
2022/12/20 08:28:09;;;;;;;;;1.75;1.75;;;;;19.93;36.87;100897.09;5053722;28;47183;-68
2022/12/20 08:30:35;;;;;;;;;2.75;1.25;;;;;20.01;36.81;100917.38;5053199;28;45340;-68
2022/12/20 08:33:00;;;;;;;;;1.50;1.50;;;;;20.05;36.72;100919.53;5053713;28;45288;-68
2022/12/20 08:35:25;;;;;;;;;0.75;0.75;;;;;20.01;37.02;100909.47;5053721;28;45295;-68
2022/12/20 08:37:51;;;;;;;;;1.50;1.50;;;;;20.06;37.11;100923.81;5053683;28;45336;-68
2022/12/20 08:40:18;;;;;;;;;2.00;2.00;;;;;20.07;37.15;100920.19;5052538;28;45530;-68
2022/12/20 08:42:43;;;;;;;;;1.00;1.00;;;;;20.08;36.87;100923.66;5053809;28;45402;-68
2022/12/20 08:45:09;;;;;;;;;1.00;1.00;;;;;20.08;37.02;100923.66;5053643;28;45498;-68
2022/12/20 08:47:35;;;;;;;;;2.50;1.50;;;;;20.08;36.98;100921.00;5053539;28;45915;-68
2022/12/20 08:50:00;;;;;;;;;2.00;2.00;;;;;20.06;36.78;100925.66;5053115;28;45429;-68
2022/12/20 08:52:28;;;;;;;;;1.25;1.00;;;;;20.09;36.91;100919.22;5053777;28;45342;-68
2022/12/20 08:54:53;;;;;;;;;1.75;1.75;;;;;20.09;36.99;100917.38;5043576;28;45436;-68
2022/12/20 08:57:19;;;;;;;;;1.75;1.75;;;;;20.09;36.94;100921.84;5032962;28;46279;-68
2022/12/20 08:59:44;;;;;;;;;2.75;1.00;;;;;20.09;37.18;100903.34;5033549;28;45376;-68
2022/12/20 09:02:09;;;;;;;;;1.75;1.75;;;;;20.09;36.99;100903.34;5036816;28;45298;-68
2022/12/20 09:04:35;;;;;;;;;2.50;0.00;;;;;20.09;37.10;100898.88;5053382;28;45379;-68
2022/12/20 09:07:00;;;;;;;;;1.50;1.00;;;;;20.07;37.18;100899.06;5053294;28;45350;-68
2022/12/20 09:09:26;;;;;;;;;2.75;1.50;;;;;20.08;36.93;100913.09;5053296;28;45451;-68
2022/12/20 09:11:51;;;;;;;;;2.25;2.25;;;;;20.07;36.95;100912.25;5053673;28;45271;-68
2022/12/20 09:14:17;;;;;;;;;1.50;1.50;;;;;20.08;37.07;100921.00;5053444;28;45346;-68
2022/12/20 09:16:42;;;;;;;;;2.00;2.00;;;;;20.06;37.10;100915.09;5053201;28;46317;-68
2022/12/20 09:19:11;;;;;;;;;2.00;1.00;;;;;20.05;36.93;100911.59;5052922;28;45320;-68
2022/12/20 09:21:37;;;;;;;;;1.00;1.00;;;;;20.09;37.06;100913.94;5053508;28;45232;-68
2022/12/20 09:24:02;;;;;;;;;0.00;0.00;;;;;20.09;37.18;100911.28;5053348;28;45368;-68
2022/12/20 09:26:27;;;;;;;;;2.00;2.00;;;;;20.08;37.14;100913.09;5053077;28;46080;-68
2022/12/20 09:28:53;;;;;;;;;2.50;1.00;;;;;20.07;37.16;100920.19;5053248;28;45290;-68
2022/12/20 09:31:20;;;;;;;;;1.00;1.00;;;;;20.09;36.99;100916.56;5035124;28;45325;-68
2022/12/20 09:33:46;;;;;;;;;1.00;1.00;;;;;20.08;37.18;100915.72;5052954;28;45352;-68
2022/12/20 09:36:14;;;;;;;;;2.00;0.00;;;;;20.06;37.18;100925.66;5052712;28;46220;-68
2022/12/20 09:38:39;;;;;;;;;1.00;1.00;;;;;20.07;37.31;100928.13;5052944;28;45432;-68
2022/12/20 09:41:08;;;;;;;;;0.00;0.00;;;;;20.09;37.29;100927.13;5053051;28;45431;-68
2022/12/20 09:43:33;;;;;;;;;1.00;1.00;;;;;20.06;37.12;100923.00;5052807;28;45422;-68
2022/12/20 09:46:01;;;;;;;;;1.00;1.00;;;;;20.09;37.16;100925.28;5052752;28;45356;-68
2022/12/20 09:48:37;;;;;;;;;2.75;2.00;;;;;20.10;37.15;100931.41;5052522;28;45319;-68
2022/12/20 09:51:24;;;;;;;;;0.67;0.67;;;;;20.08;37.13;100931.59;5052899;28;45465;-68
2022/12/20 09:54:17;;;;;;;;;1.00;1.00;;;;;20.09;37.16;100927.94;5051149;28;45474;-68
2022/12/20 09:56:46;;;;;;;;;1.00;1.00;;;;;20.08;37.23;100923.66;5032460;28;46886;-68
2022/12/20 09:59:18;;;;;;;;;2.00;2.00;;;;;20.09;37.24;100927.94;5032521;28;45370;-68
2022/12/20 10:01:48;;;;;;;;;1.00;1.00;;;;;19.98;37.22;100907.97;5032399;27;45408;-68
2022/12/20 10:04:27;;;;;;;;;1.25;1.25;;;;;20.09;37.08;100927.94;5052530;28;45335;-68
2022/12/20 10:07:26;;;;;;;;;2.00;2.00;;;;;20.09;37.46;100925.28;5052358;28;46292;-68
2022/12/20 10:10:20;;;;;;;;;1.00;1.00;;;;;20.09;37.10;100925.28;5052471;28;45203;-68
2022/12/20 10:13:15;;;;;;;;;1.00;1.00;;;;;20.03;37.41;100926.81;4951402;28;45357;-68
2022/12/20 10:15:51;;;;;;;;;1.75;1.75;;;;;20.08;37.47;100931.59;4951370;28;45383;-68
2022/12/20 10:18:35;;;;;;;;;3.50;2.00;;;;;20.08;37.43;100921.00;4950487;28;48921;-68
2022/12/20 10:21:20;;;;;;;;;4.00;1.25;;;;;20.05;37.26;100921.34;4951121;28;45429;-68
2022/12/20 10:23:59;;;;;;;;;1.75;1.75;;;;;20.09;37.32;100924.50;4951334;28;45411;-68
2022/12/20 10:26:25;;;;;;;;;2.00;2.00;;;;;20.07;37.17;100929.91;4951272;28;45341;-68
2022/12/20 10:28:50;;;;;;;;;3.50;1.75;;;;;20.08;37.24;100921.00;4951100;28;46264;-68
2022/12/20 10:31:17;;;;;;;;;4.00;2.75;;;;;20.03;37.26;100915.41;4950999;28;45455;-68
2022/12/20 10:33:43;;;;;;;;;3.25;2.25;;;;;20.09;37.34;100916.56;4951439;28;45380;-68
2022/12/20 10:36:23;;;;;;;;;3.50;1.75;;;;;20.06;37.55;100917.72;4950895;28;45355;-68
2022/12/20 10:38:51;;;;;;;;;2.00;2.00;;;;;20.07;37.19;100914.91;4950882;28;46093;-68
2022/12/20 10:41:19;;;;;;;;;1.50;0.50;;;;;20.07;37.35;100906.97;4950879;28;45393;-68
2022/12/20 10:43:48;;;;;;;;;2.50;1.00;;;;;20.08;37.33;100910.44;4951085;28;45401;-68
2022/12/20 10:46:17;;;;;;;;;2.25;1.50;;;;;20.07;37.33;100906.97;4950500;28;45883;-68
2022/12/20 10:48:45;;;;;;;;;2.00;2.00;;;;;20.09;37.34;100909.44;4958408;28;46172;-68
2022/12/20 10:51:14;;;;;;;;;1.00;1.00;;;;;20.10;37.28;100905.00;5051812;28;45343;-68
2022/12/20 10:53:53;;;;;;;;;2.00;2.00;;;;;20.10;37.23;100903.19;5051834;28;45372;-68
2022/12/20 10:56:26;;;;;;;;;1.25;1.25;;;;;20.10;37.13;100915.56;5014899;28;45297;-68
2022/12/20 10:58:57;;;;;;;;;1.00;1.00;;;;;20.10;37.02;100911.09;5014727;28;46924;-68
2022/12/20 11:01:26;;;;;;;;;1.00;1.00;;;;;20.11;37.34;100912.78;5014502;28;45365;-67
2022/12/20 11:03:58;;;;;;;;;1.00;1.00;;;;;20.10;37.26;100911.09;5050340;28;45414;-68
2022/12/20 11:06:27;;;;;;;;;2.00;2.00;;;;;20.11;37.24;100910.13;5054791;28;45487;-68
2022/12/20 11:08:53;;;;;;;;;2.00;0.75;;;;;20.10;37.29;100916.38;5054719;28;47159;-68
2022/12/20 11:11:25;;;;;;;;;2.00;2.00;;;;;20.10;37.38;100916.38;5054752;28;45475;-68
2022/12/20 11:13:51;;;;;;;;;1.75;0.00;;;;;19.99;37.27;100887.66;5055101;28;45354;-67
2022/12/20 11:16:35;;;;;;;;;1.50;1.50;;;;;20.11;37.30;100904.84;5054375;28;45456;-68
2022/12/20 11:19:06;;;;;;;;;1.00;1.00;;;;;20.12;37.14;100897.75;5054508;28;46989;-68
2022/12/20 11:21:50;;;;;;;;;1.00;1.00;;;;;20.11;37.53;100890.81;5054655;28;45302;-68
2022/12/20 11:24:21;;;;;;;;;1.00;1.00;;;;;20.12;37.35;100887.19;5054668;28;45322;-69
2022/12/20 11:26:52;;;;;;;;;0.00;0.00;;;;;20.11;37.53;100883.72;5054704;28;45387;-68
2022/12/20 11:29:40;;;;;;;;;1.00;1.00;;;;;20.11;37.50;100893.44;5054126;28;47173;-68
2022/12/20 11:32:43;;;;;;;;;1.50;1.50;;;;;20.12;37.36;100882.72;5054253;27;45359;-68
2022/12/20 11:35:17;;;;;;;;;3.00;1.25;;;;;20.08;37.15;100876.13;5054602;28;45446;-68
2022/12/20 11:38:13;;;;;;;;;1.25;1.25;;;;;20.11;37.40;100869.69;5054495;28;45413;-68